createdAt,value
2017-04-17T00:00:16.096Z,7.5
2017-04-17T00:01:18.244Z,7.5
2017-04-17T00:02:20.040Z,7.5
2017-04-17T00:03:22.513Z,7.4
2017-04-17T00:04:24.645Z,7.4
2017-04-17T00:05:26.792Z,7.5
2017-04-17T00:06:28.764Z,7.4
2017-04-17T00:07:30.555Z,7.4
2017-04-17T00:08:32.355Z,7.4
2017-04-17T00:09:34.150Z,7.4
2017-04-17T00:10:35.954Z,7.4
2017-04-17T00:11:38.094Z,7.4
2017-04-17T00:12:39.897Z,7.4
2017-04-17T00:13:41.695Z,7.3
2017-04-17T00:14:43.488Z,7.3
2017-04-17T00:15:45.295Z,7.3
2017-04-17T00:16:47.096Z,7.3
2017-04-17T00:17:48.893Z,7.3
2017-04-17T00:18:50.719Z,7.3
2017-04-17T00:19:52.864Z,7.2
2017-04-17T00:20:54.669Z,7.2
2017-04-17T00:21:56.460Z,7.2
2017-04-17T00:22:58.602Z,7.2
2017-04-17T00:24:00.736Z,7.2
2017-04-17T00:25:02.534Z,7.2
2017-04-17T00:26:04.684Z,7.1
2017-04-17T00:27:06.473Z,7.1
2017-04-17T00:28:08.269Z,7.1
2017-04-17T00:29:10.069Z,7.1
2017-04-17T00:30:11.864Z,7.1
2017-04-17T00:31:13.662Z,7.1
2017-04-17T00:32:15.585Z,7
2017-04-17T00:33:17.379Z,7
2017-04-17T00:34:19.172Z,7
2017-04-17T00:35:20.971Z,7
2017-04-17T00:36:23.106Z,7
2017-04-17T00:37:24.903Z,6.9
2017-04-17T00:38:27.045Z,6.9
2017-04-17T00:39:29.192Z,6.9
2017-04-17T00:40:31.010Z,6.9
2017-04-17T00:41:32.803Z,6.9
2017-04-17T00:42:35.279Z,6.9
2017-04-17T00:43:37.617Z,6.8
2017-04-17T00:44:39.411Z,6.8
2017-04-17T00:45:41.880Z,6.8
2017-04-17T00:46:43.677Z,6.8
2017-04-17T00:47:45.473Z,6.8
2017-04-17T00:48:47.263Z,6.8
2017-04-17T00:49:49.060Z,6.8
2017-04-17T00:50:50.853Z,6.8
2017-04-17T00:51:52.991Z,6.8
2017-04-17T00:52:55.123Z,6.8
2017-04-17T00:53:56.922Z,6.8
2017-04-17T00:54:58.866Z,6.7
2017-04-17T00:56:00.865Z,6.7
2017-04-17T00:57:02.738Z,6.7
2017-04-17T00:58:04.536Z,6.7
2017-04-17T00:59:06.328Z,6.7
2017-04-17T01:00:08.123Z,6.7
2017-04-17T01:01:09.913Z,6.7
2017-04-17T01:02:11.710Z,6.7
2017-04-17T01:03:13.843Z,6.7
2017-04-17T01:04:15.985Z,6.6
2017-04-17T01:05:17.779Z,6.7
2017-04-17T01:06:19.570Z,6.6
2017-04-17T01:07:21.510Z,6.6
2017-04-17T01:08:23.760Z,6.6
2017-04-17T01:09:25.889Z,6.6
2017-04-17T01:10:27.685Z,6.6
2017-04-17T01:11:29.477Z,6.5
2017-04-17T01:12:31.276Z,6.5
2017-04-17T01:13:33.077Z,6.5
2017-04-17T01:14:34.871Z,6.5
2017-04-17T01:15:36.999Z,6.5
2017-04-17T01:16:38.803Z,6.5
2017-04-17T01:17:40.598Z,6.5
2017-04-17T01:18:42.736Z,6.5
2017-04-17T01:19:44.951Z,6.4
2017-04-17T01:20:46.805Z,6.4
2017-04-17T01:21:48.938Z,6.4
2017-04-17T01:22:51.076Z,6.4
2017-04-17T01:23:52.874Z,6.4
2017-04-17T01:24:54.666Z,6.4
2017-04-17T01:25:56.467Z,6.4
2017-04-17T01:26:58.263Z,6.4
2017-04-17T01:28:00.053Z,6.4
2017-04-17T01:29:01.854Z,6.4
2017-04-17T01:30:03.646Z,6.4
2017-04-17T01:31:05.442Z,6.4
2017-04-17T01:32:07.345Z,6.3
2017-04-17T01:33:09.622Z,6.4
2017-04-17T01:34:11.676Z,6.4
2017-04-17T01:35:13.476Z,6.4
2017-04-17T01:36:15.276Z,6.4
2017-04-17T01:37:17.071Z,6.4
2017-04-17T01:38:18.865Z,6.4
2017-04-17T01:39:20.664Z,6.4
2017-04-17T01:40:22.456Z,6.4
2017-04-17T01:41:24.253Z,6.4
2017-04-17T01:42:26.046Z,6.4
2017-04-17T01:43:27.841Z,6.4
2017-04-17T01:44:29.650Z,6.4
2017-04-17T01:45:31.444Z,6.4
2017-04-17T01:46:33.352Z,6.5
2017-04-17T01:47:35.150Z,6.5
2017-04-17T01:48:37.619Z,6.5
2017-04-17T01:49:39.416Z,6.5
2017-04-17T01:50:41.214Z,6.5
2017-04-17T01:51:43.012Z,6.5
2017-04-17T01:52:45.141Z,6.5
2017-04-17T01:53:46.935Z,6.5
2017-04-17T01:54:49.075Z,6.5
2017-04-17T01:55:50.871Z,6.6
2017-04-17T01:56:52.668Z,6.6
2017-04-17T01:57:54.615Z,6.6
2017-04-17T01:58:56.823Z,6.6
2017-04-17T01:59:58.619Z,6.6
2017-04-17T02:01:00.415Z,6.6
2017-04-17T02:02:02.212Z,6.6
2017-04-17T02:03:04.006Z,6.7
2017-04-17T02:04:05.810Z,6.7
2017-04-17T02:05:07.618Z,6.7
2017-04-17T02:06:10.081Z,6.7
2017-04-17T02:07:11.880Z,6.7
2017-04-17T02:08:13.677Z,6.7
2017-04-17T02:09:15.810Z,6.8
2017-04-17T02:10:18.061Z,6.8
2017-04-17T02:11:19.935Z,6.8
2017-04-17T02:12:22.069Z,6.8
2017-04-17T02:13:23.864Z,6.7
2017-04-17T02:14:25.662Z,6.7
2017-04-17T02:15:27.458Z,6.7
2017-04-17T02:16:29.589Z,6.7
2017-04-17T02:17:31.380Z,6.7
2017-04-17T02:18:33.183Z,6.7
2017-04-17T02:19:34.980Z,6.7
2017-04-17T02:20:36.776Z,6.7
2017-04-17T02:21:38.573Z,6.7
2017-04-17T02:22:40.368Z,6.7
2017-04-17T02:23:42.248Z,6.7
2017-04-17T02:24:44.043Z,6.6
2017-04-17T02:25:45.836Z,6.7
2017-04-17T02:26:47.630Z,6.7
2017-04-17T02:27:49.434Z,6.7
2017-04-17T02:28:51.230Z,6.7
2017-04-17T02:29:53.024Z,6.7
2017-04-17T02:30:54.821Z,6.7
2017-04-17T02:31:56.613Z,6.7
2017-04-17T02:32:58.406Z,6.7
2017-04-17T02:34:00.199Z,6.7
2017-04-17T02:35:02.332Z,6.7
2017-04-17T02:36:04.130Z,6.6
2017-04-17T02:37:05.924Z,6.6
2017-04-17T02:38:07.720Z,6.6
2017-04-17T02:39:09.511Z,6.6
2017-04-17T02:40:11.307Z,6.6
2017-04-17T02:41:13.107Z,6.6
2017-04-17T02:42:14.897Z,6.6
2017-04-17T02:43:16.695Z,6.6
2017-04-17T02:44:18.494Z,6.6
2017-04-17T02:45:20.295Z,6.6
2017-04-17T02:46:22.086Z,6.6
2017-04-17T02:47:23.942Z,6.6
2017-04-17T02:48:25.737Z,6.6
2017-04-17T02:49:27.532Z,6.6
2017-04-17T02:50:29.328Z,6.6
2017-04-17T02:51:31.123Z,6.6
2017-04-17T02:52:32.911Z,6.6
2017-04-17T02:53:35.051Z,6.5
2017-04-17T02:54:37.187Z,6.6
2017-04-17T02:55:38.991Z,6.6
2017-04-17T02:56:41.117Z,6.5
2017-04-17T02:57:42.913Z,6.5
2017-04-17T02:58:44.707Z,6.5
2017-04-17T02:59:46.560Z,6.5
2017-04-17T03:00:48.356Z,6.5
2017-04-17T03:01:50.152Z,6.5
2017-04-17T03:02:51.947Z,6.5
2017-04-17T03:03:54.082Z,6.5
2017-04-17T03:04:56.213Z,6.5
2017-04-17T03:05:58.011Z,6.5
2017-04-17T03:06:59.801Z,6.4
2017-04-17T03:08:01.594Z,6.5
2017-04-17T03:09:03.393Z,6.5
2017-04-17T03:10:05.186Z,6.5
2017-04-17T03:11:07.108Z,6.5
2017-04-17T03:12:08.977Z,6.5
2017-04-17T03:13:10.772Z,6.5
2017-04-17T03:14:12.921Z,6.5
2017-04-17T03:15:14.715Z,6.5
2017-04-17T03:16:16.868Z,6.5
2017-04-17T03:17:18.669Z,6.5
2017-04-17T03:18:20.465Z,6.5
2017-04-17T03:19:22.263Z,6.6
2017-04-17T03:20:24.062Z,6.6
2017-04-17T03:21:25.860Z,6.6
2017-04-17T03:22:27.654Z,6.5
2017-04-17T03:23:29.863Z,6.5
2017-04-17T03:24:31.731Z,6.5
2017-04-17T03:25:33.523Z,6.5
2017-04-17T03:26:35.322Z,6.5
2017-04-17T03:27:37.127Z,6.6
2017-04-17T03:28:38.915Z,6.5
2017-04-17T03:29:40.715Z,6.5
2017-04-17T03:30:42.507Z,6.5
2017-04-17T03:31:44.305Z,6.5
2017-04-17T03:32:46.102Z,6.5
2017-04-17T03:33:48.231Z,6.5
2017-04-17T03:34:50.025Z,6.5
2017-04-17T03:35:51.823Z,6.5
2017-04-17T03:36:53.821Z,6.5
2017-04-17T03:37:55.951Z,6.5
2017-04-17T03:38:58.089Z,6.5
2017-04-17T03:40:00.227Z,6.5
2017-04-17T03:41:02.020Z,6.5
2017-04-17T03:42:03.812Z,6.5
2017-04-17T03:43:05.605Z,6.5
2017-04-17T03:44:07.405Z,6.5
2017-04-17T03:45:09.544Z,6.5
2017-04-17T03:46:11.678Z,6.5
2017-04-17T03:47:13.479Z,6.5
2017-04-17T03:48:15.659Z,6.5
2017-04-17T03:49:17.457Z,6.5
2017-04-17T03:50:19.252Z,6.5
2017-04-17T03:51:21.045Z,6.5
2017-04-17T03:52:22.839Z,6.5
2017-04-17T03:53:24.642Z,6.5
2017-04-17T03:54:26.781Z,6.5
2017-04-17T03:55:28.577Z,6.5
2017-04-17T03:56:30.371Z,6.5
2017-04-17T03:57:32.175Z,6.4
2017-04-17T03:58:33.972Z,6.5
2017-04-17T03:59:36.319Z,6.4
2017-04-17T04:00:38.692Z,6.5
2017-04-17T04:01:40.493Z,6.4
2017-04-17T04:02:42.284Z,6.4
2017-04-17T04:03:44.082Z,6.4
2017-04-17T04:04:45.873Z,6.4
2017-04-17T04:05:47.665Z,6.4
2017-04-17T04:06:49.466Z,6.4
2017-04-17T04:07:51.263Z,6.4
2017-04-17T04:08:53.059Z,6.4
2017-04-17T04:09:54.851Z,6.4
2017-04-17T04:10:56.647Z,6.4
2017-04-17T04:11:58.438Z,6.4
2017-04-17T04:13:00.258Z,6.4
2017-04-17T04:14:02.050Z,6.3
2017-04-17T04:15:03.848Z,6.3
2017-04-17T04:16:05.995Z,6.3
2017-04-17T04:17:07.793Z,6.3
2017-04-17T04:18:09.589Z,6.3
2017-04-17T04:19:11.393Z,6.3
2017-04-17T04:20:13.185Z,6.3
2017-04-17T04:21:14.985Z,6.4
2017-04-17T04:22:16.777Z,6.3
2017-04-17T04:23:18.625Z,6.3
2017-04-17T04:24:20.509Z,6.3
2017-04-17T04:25:22.302Z,6.3
2017-04-17T04:26:24.099Z,6.3
2017-04-17T04:27:25.893Z,6.3
2017-04-17T04:28:27.689Z,6.4
2017-04-17T04:29:29.480Z,6.4
2017-04-17T04:30:31.277Z,6.3
2017-04-17T04:31:33.074Z,6.4
2017-04-17T04:32:35.213Z,6.3
2017-04-17T04:33:37.011Z,6.3
2017-04-17T04:34:39.147Z,6.3
2017-04-17T04:35:40.968Z,6.3
2017-04-17T04:36:42.833Z,6.3
2017-04-17T04:37:44.623Z,6.3
2017-04-17T04:38:46.758Z,6.3
2017-04-17T04:39:48.550Z,6.3
2017-04-17T04:40:50.350Z,6.4
2017-04-17T04:41:52.502Z,6.3
2017-04-17T04:42:54.307Z,6.4
2017-04-17T04:43:56.101Z,6.4
2017-04-17T04:44:57.897Z,6.4
2017-04-17T04:45:59.697Z,6.4
2017-04-17T04:47:01.581Z,6.4
2017-04-17T04:48:03.382Z,6.4
2017-04-17T04:49:05.514Z,6.4
2017-04-17T04:50:07.313Z,6.4
2017-04-17T04:51:09.106Z,6.4
2017-04-17T04:52:10.906Z,6.5
2017-04-17T04:53:12.738Z,6.5
2017-04-17T04:54:14.873Z,6.5
2017-04-17T04:55:16.729Z,6.5
2017-04-17T04:56:18.555Z,6.6
2017-04-17T04:57:20.404Z,6.6
2017-04-17T04:58:22.221Z,6.5
2017-04-17T04:59:24.102Z,6.6
2017-04-17T05:00:26.009Z,6.6
2017-04-17T05:01:27.819Z,6.6
2017-04-17T05:02:29.637Z,6.6
2017-04-17T05:03:31.775Z,6.6
2017-04-17T05:04:33.822Z,6.6
2017-04-17T05:05:35.702Z,6.6
2017-04-17T05:06:37.865Z,6.6
2017-04-17T05:07:39.727Z,6.6
2017-04-17T05:08:41.528Z,6.6
2017-04-17T05:09:43.355Z,6.7
2017-04-17T05:10:45.150Z,6.7
2017-04-17T05:11:47.000Z,6.7
2017-04-17T05:12:49.139Z,6.7
2017-04-17T05:13:51.293Z,6.7
2017-04-17T05:14:53.228Z,6.7
2017-04-17T05:15:55.030Z,6.7
2017-04-17T05:16:56.827Z,6.7
2017-04-17T05:17:58.629Z,6.7
2017-04-17T05:19:00.902Z,6.7
2017-04-17T05:20:02.796Z,6.7
2017-04-17T05:21:05.325Z,6.7
2017-04-17T05:22:07.121Z,6.7
2017-04-17T05:23:09.275Z,6.7
2017-04-17T05:24:11.138Z,6.7
2017-04-17T05:25:12.933Z,6.7
2017-04-17T05:26:14.742Z,6.7
2017-04-17T05:27:16.873Z,6.8
2017-04-17T05:28:19.068Z,6.8
2017-04-17T05:29:20.920Z,6.7
2017-04-17T05:30:22.723Z,6.7
2017-04-17T05:31:24.612Z,6.8
2017-04-17T05:32:26.402Z,6.8
2017-04-17T05:33:28.222Z,6.8
2017-04-17T05:34:30.154Z,6.8
2017-04-17T05:35:32.023Z,6.8
2017-04-17T05:36:33.825Z,6.8
2017-04-17T05:37:35.689Z,6.8
2017-04-17T05:38:37.856Z,6.9
2017-04-17T05:39:40.429Z,6.9
2017-04-17T05:40:42.943Z,6.9
2017-04-17T05:41:45.382Z,6.9
2017-04-17T05:42:47.543Z,6.9
2017-04-17T05:44:28.387Z,6.9
2017-04-17T05:46:05.738Z,6.9
2017-04-17T05:47:08.094Z,6.9
2017-04-17T05:48:10.382Z,7
2017-04-17T05:49:12.864Z,7
2017-04-17T05:50:15.059Z,7
2017-04-17T05:51:17.485Z,7
2017-04-17T05:53:03.912Z,7
2017-04-17T05:54:06.597Z,7
2017-04-17T05:55:08.990Z,7
2017-04-17T05:56:11.275Z,7.1
2017-04-17T05:57:13.596Z,7.1
2017-04-17T05:58:15.914Z,7.1
2017-04-17T05:59:18.260Z,7.1
2017-04-17T06:00:20.526Z,7.1
2017-04-17T06:01:22.914Z,7.1
2017-04-17T06:02:25.212Z,7.1
2017-04-17T06:03:27.562Z,7.1
2017-04-17T06:04:29.784Z,7.1
2017-04-17T06:05:32.152Z,7.1
2017-04-17T06:06:34.398Z,7.1
2017-04-17T06:07:37.045Z,7.1
2017-04-17T06:08:39.250Z,7.1
2017-04-17T06:09:41.499Z,7.2
2017-04-17T06:10:43.926Z,7.2
2017-04-17T06:11:46.115Z,7.2
2017-04-17T06:12:48.458Z,7.2
2017-04-17T06:13:50.764Z,7.3
2017-04-17T06:14:53.022Z,7.3
2017-04-17T06:15:55.353Z,7.3
2017-04-17T06:16:57.549Z,7.3
2017-04-17T06:17:59.819Z,7.4
2017-04-17T06:19:01.911Z,7.4
2017-04-17T06:20:03.868Z,7.4
2017-04-17T06:21:05.676Z,7.4
2017-04-17T06:22:07.686Z,7.5
2017-04-17T06:23:09.483Z,7.5
2017-04-17T06:24:11.408Z,7.5
2017-04-17T06:25:13.285Z,7.6
2017-04-17T06:26:15.666Z,7.6
2017-04-17T06:27:22.064Z,7.7
2017-04-17T06:28:24.195Z,7.7
2017-04-17T06:29:26.141Z,7.8
2017-04-17T06:30:27.935Z,7.8
2017-04-17T06:31:29.738Z,7.8
2017-04-17T06:32:31.529Z,7.9
2017-04-17T06:33:33.667Z,7.9
2017-04-17T06:34:35.463Z,7.9
2017-04-17T06:35:37.262Z,7.9
2017-04-17T06:36:39.248Z,8
2017-04-17T06:37:41.205Z,8
2017-04-17T06:38:43.156Z,8
2017-04-17T06:39:44.950Z,8
2017-04-17T06:40:46.757Z,8
2017-04-17T06:41:48.576Z,8.1
2017-04-17T06:42:50.713Z,8.1
2017-04-17T06:43:52.508Z,8.1
2017-04-17T06:44:54.315Z,8.1
2017-04-17T06:45:56.110Z,8.2
2017-04-17T06:46:57.913Z,8.2
2017-04-17T06:47:59.752Z,8.2
2017-04-17T06:49:01.544Z,8.2
2017-04-17T06:50:03.834Z,8.3
2017-04-17T06:51:05.636Z,8.3
2017-04-17T06:52:07.434Z,8.4
2017-04-17T06:53:09.461Z,8.4
2017-04-17T06:54:11.853Z,8.4
2017-04-17T06:55:13.922Z,8.5
2017-04-17T06:56:15.731Z,8.5
2017-04-17T06:57:17.527Z,8.6
2017-04-17T06:58:19.602Z,8.7
2017-04-17T06:59:22.083Z,8.8
2017-04-17T07:00:23.938Z,8.8
2017-04-17T07:01:25.905Z,8.8
2017-04-17T07:02:28.053Z,8.9
2017-04-17T07:03:29.862Z,8.9
2017-04-17T07:04:31.655Z,8.9
2017-04-17T07:05:33.456Z,8.9
2017-04-17T07:06:35.259Z,9
2017-04-17T07:07:37.064Z,9
2017-04-17T07:08:38.880Z,9
2017-04-17T07:09:40.685Z,9.1
2017-04-17T07:10:42.855Z,9.1
2017-04-17T07:11:44.666Z,9.2
2017-04-17T07:12:46.748Z,9.2
2017-04-17T07:14:18.038Z,9.2
2017-04-17T07:15:20.006Z,9.3
2017-04-17T07:16:21.816Z,9.4
2017-04-17T07:17:24.049Z,9.4
2017-04-17T07:18:26.018Z,9.5
2017-04-17T07:19:34.953Z,9.5
2017-04-17T07:20:37.090Z,9.6
2017-04-17T07:22:11.868Z,9.6
2017-04-17T07:23:20.011Z,9.6
2017-04-17T07:24:23.173Z,9.7
2017-04-17T07:25:24.981Z,9.8
2017-04-17T07:26:26.824Z,9.8
2017-04-17T07:27:28.834Z,9.8
2017-04-17T07:28:30.717Z,9.9
2017-04-17T07:29:32.865Z,9.9
2017-04-17T07:30:34.999Z,9.9
2017-04-17T07:31:37.340Z,10
2017-04-17T07:32:39.142Z,10
2017-04-17T07:33:40.945Z,10.1
2017-04-17T07:34:43.016Z,10.1
2017-04-17T07:35:44.813Z,10.2
2017-04-17T07:36:46.952Z,10.2
2017-04-17T07:37:49.091Z,10.2
2017-04-17T07:38:50.893Z,10.3
2017-04-17T07:39:52.687Z,10.3
2017-04-17T07:40:54.493Z,10.3
2017-04-17T07:41:56.296Z,10.4
2017-04-17T07:42:58.096Z,10.4
2017-04-17T07:44:00.047Z,10.4
2017-04-17T07:45:01.852Z,10.5
2017-04-17T07:46:03.654Z,10.5
2017-04-17T07:47:05.461Z,10.5
2017-04-17T07:48:07.259Z,10.5
2017-04-17T07:49:09.058Z,10.5
2017-04-17T07:50:10.857Z,10.6
2017-04-17T07:51:12.893Z,10.6
2017-04-17T07:52:14.692Z,10.7
2017-04-17T07:53:16.496Z,10.7
2017-04-17T07:54:18.634Z,10.8
2017-04-17T07:55:20.555Z,10.8
2017-04-17T07:56:22.350Z,10.8
2017-04-17T07:57:24.151Z,10.9
2017-04-17T07:58:26.294Z,11
2017-04-17T07:59:28.097Z,11
2017-04-17T08:00:29.900Z,11.1
2017-04-17T08:01:31.699Z,11.1
2017-04-17T08:02:33.830Z,11.2
2017-04-17T08:03:36.512Z,11.3
2017-04-17T08:04:38.329Z,11.4
2017-04-17T08:05:40.128Z,11.5
2017-04-17T08:06:41.934Z,11.5
2017-04-17T08:07:43.734Z,11.6
2017-04-17T08:08:46.102Z,11.7
2017-04-17T08:09:48.238Z,11.7
2017-04-17T08:10:50.047Z,11.8
2017-04-17T08:11:52.097Z,11.9
2017-04-17T08:12:53.898Z,11.9
2017-04-17T08:13:55.707Z,12
2017-04-17T08:14:57.654Z,12
2017-04-17T08:15:59.685Z,12.2
2017-04-17T08:17:01.491Z,12.2
2017-04-17T08:18:03.299Z,12.3
2017-04-17T08:19:05.104Z,12.4
2017-04-17T08:20:07.353Z,12.5
2017-04-17T08:21:09.493Z,12.5
2017-04-17T08:22:11.296Z,12.6
2017-04-17T08:23:13.116Z,12.6
2017-04-17T08:24:14.920Z,12.6
2017-04-17T08:25:16.728Z,12.6
2017-04-17T08:26:18.658Z,12.7
2017-04-17T08:27:20.459Z,12.6
2017-04-17T08:28:22.266Z,12.6
2017-04-17T08:29:24.417Z,12.7
2017-04-17T08:30:26.222Z,12.7
2017-04-17T08:31:28.256Z,12.7
2017-04-17T08:32:30.402Z,12.7
2017-04-17T08:33:32.207Z,12.8
2017-04-17T08:34:34.279Z,12.8
2017-04-17T08:35:36.100Z,12.9
2017-04-17T08:36:38.238Z,13
2017-04-17T08:37:40.038Z,13.1
2017-04-17T08:38:42.020Z,13.3
2017-04-17T08:39:44.164Z,13.4
2017-04-17T08:40:45.995Z,13.5
2017-04-17T08:42:31.767Z,13.6
2017-04-17T08:44:04.523Z,13.8
2017-04-17T08:45:07.128Z,14.1
2017-04-17T08:46:08.935Z,14.4
2017-04-17T08:47:10.745Z,14.5
2017-04-17T08:48:12.549Z,14.7
2017-04-17T08:49:14.418Z,14.7
2017-04-17T08:50:16.217Z,14.9
2017-04-17T08:51:18.066Z,15
2017-04-17T08:52:20.281Z,15.1
2017-04-17T08:53:22.143Z,15.1
2017-04-17T08:54:24.074Z,15.1
2017-04-17T08:55:26.022Z,15.1
2017-04-17T08:56:27.940Z,15.1
2017-04-17T08:57:30.131Z,15.2
2017-04-17T08:58:32.281Z,15.3
2017-04-17T08:59:34.085Z,15.4
2017-04-17T09:00:35.893Z,15.5
2017-04-17T09:01:37.894Z,15.6
2017-04-17T09:02:39.700Z,15.6
2017-04-17T09:03:41.508Z,15.6
2017-04-17T09:04:43.616Z,15.6
2017-04-17T09:05:45.490Z,15.6
2017-04-17T09:06:47.298Z,15.6
2017-04-17T09:07:49.106Z,15.6
2017-04-17T09:08:50.976Z,15.5
2017-04-17T09:09:52.886Z,15.6
2017-04-17T09:10:54.705Z,15.7
2017-04-17T09:11:56.751Z,15.9
2017-04-17T09:12:58.561Z,16
2017-04-17T09:14:00.367Z,16
2017-04-17T09:15:02.348Z,16.1
2017-04-17T09:16:04.658Z,16.1
2017-04-17T09:17:06.531Z,16.2
2017-04-17T09:18:08.346Z,16.3
2017-04-17T09:19:10.503Z,16.5
2017-04-17T09:20:12.318Z,16.6
2017-04-17T09:21:14.410Z,16.6
2017-04-17T09:22:16.219Z,16.5
2017-04-17T09:23:18.129Z,16.5
2017-04-17T09:24:19.934Z,16.4
2017-04-17T09:25:21.738Z,16.4
2017-04-17T09:26:23.554Z,16.4
2017-04-17T09:27:25.613Z,16.4
2017-04-17T09:28:28.848Z,16.4
2017-04-17T09:29:30.861Z,16.4
2017-04-17T09:30:32.669Z,16.4
2017-04-17T09:31:34.795Z,16.4
2017-04-17T09:32:36.955Z,16.4
2017-04-17T09:33:39.058Z,16.6
2017-04-17T09:34:41.188Z,16.8
2017-04-17T09:35:42.997Z,17
2017-04-17T09:36:44.802Z,17
2017-04-17T09:37:46.682Z,17
2017-04-17T09:38:48.756Z,17
2017-04-17T09:39:50.664Z,16.9
2017-04-17T09:40:52.479Z,16.8
2017-04-17T09:41:54.297Z,16.8
2017-04-17T09:42:56.954Z,16.7
2017-04-17T09:43:59.128Z,16.6
2017-04-17T09:45:00.942Z,16.5
2017-04-17T09:46:03.505Z,16.4
2017-04-17T09:47:05.351Z,16.4
2017-04-17T09:48:07.164Z,16.4
2017-04-17T09:49:09.569Z,16.4
2017-04-17T09:50:11.452Z,16.3
2017-04-17T09:51:13.405Z,16.3
2017-04-17T09:52:15.440Z,16.3
2017-04-17T09:53:17.252Z,16.4
2017-04-17T09:54:19.281Z,16.5
2017-04-17T09:55:21.085Z,16.7
2017-04-17T09:56:22.903Z,16.8
2017-04-17T09:57:25.046Z,16.9
2017-04-17T09:58:26.858Z,16.9
2017-04-17T09:59:29.457Z,16.9
2017-04-17T10:00:31.328Z,16.8
2017-04-17T10:01:33.347Z,16.7
2017-04-17T10:02:36.381Z,16.6
2017-04-17T10:03:38.189Z,16.5
2017-04-17T10:04:40.340Z,16.4
2017-04-17T10:05:42.140Z,16.3
2017-04-17T10:06:44.132Z,16.3
2017-04-17T10:07:45.947Z,16.4
2017-04-17T10:08:47.759Z,16.6
2017-04-17T10:09:49.573Z,16.8
2017-04-17T10:10:51.594Z,16.9
2017-04-17T10:11:53.407Z,17
2017-04-17T10:12:55.558Z,17.1
2017-04-17T10:13:57.481Z,17.2
2017-04-17T10:14:59.295Z,17.3
2017-04-17T10:16:01.112Z,17.3
2017-04-17T10:17:02.933Z,17.3
2017-04-17T10:18:05.086Z,17.2
2017-04-17T10:19:07.398Z,17.1
2017-04-17T10:20:10.366Z,17.1
2017-04-17T10:21:12.176Z,17.1
2017-04-17T10:22:13.980Z,17.2
2017-04-17T10:23:16.052Z,17.4
2017-04-17T10:24:17.856Z,17.6
2017-04-17T10:25:19.761Z,17.9
2017-04-17T10:26:21.641Z,18.2
2017-04-17T10:27:23.679Z,18.5
2017-04-17T10:28:25.490Z,18.7
2017-04-17T10:29:27.314Z,18.9
2017-04-17T10:30:29.121Z,18.9
2017-04-17T10:31:30.931Z,19
2017-04-17T10:32:32.751Z,18.9
2017-04-17T10:33:34.801Z,18.8
2017-04-17T10:34:36.960Z,18.8
2017-04-17T10:35:38.775Z,18.6
2017-04-17T10:36:40.752Z,18.5
2017-04-17T10:37:42.856Z,18.3
2017-04-17T10:38:44.678Z,18.1
2017-04-17T10:39:46.493Z,18
2017-04-17T10:40:48.302Z,17.9
2017-04-17T10:41:50.135Z,17.8
2017-04-17T10:42:51.955Z,17.7
2017-04-17T10:43:54.102Z,17.6
2017-04-17T10:44:55.913Z,17.5
2017-04-17T10:45:58.150Z,17.5
2017-04-17T10:47:00.087Z,17.5
2017-04-17T10:48:02.089Z,17.7
2017-04-17T10:49:04.063Z,17.9
2017-04-17T10:50:05.883Z,18
2017-04-17T10:51:07.901Z,18.2
2017-04-17T10:52:09.768Z,18.3
2017-04-17T10:53:11.591Z,18.3
2017-04-17T10:54:13.628Z,18.3
2017-04-17T10:55:15.484Z,18.3
2017-04-17T10:56:17.752Z,18.2
2017-04-17T10:57:20.316Z,18.1
2017-04-17T10:58:22.592Z,18
2017-04-17T10:59:24.488Z,18
2017-04-17T11:00:26.354Z,17.9
2017-04-17T11:01:28.261Z,17.9
2017-04-17T11:02:30.745Z,18
2017-04-17T11:03:32.567Z,18.2
2017-04-17T11:04:34.378Z,18.4
2017-04-17T11:05:40.927Z,18.5
2017-04-17T11:06:49.245Z,18.7
2017-04-17T11:07:57.434Z,18.8
2017-04-17T11:09:03.214Z,19.1
2017-04-17T11:10:09.484Z,19.2
2017-04-17T11:11:15.045Z,19.4
2017-04-17T11:12:20.983Z,19.7
2017-04-17T11:13:26.549Z,19.9
2017-04-17T11:14:35.621Z,20.1
2017-04-17T11:15:49.579Z,20.4
2017-04-17T11:16:55.784Z,20.6
2017-04-17T11:18:04.095Z,20.8
2017-04-17T11:19:39.265Z,21
2017-04-17T11:21:13.655Z,21.1
2017-04-17T11:25:22.804Z,21.3
2017-04-17T11:27:48.896Z,21.2
2017-04-17T11:28:53.981Z,20.9
2017-04-17T11:29:55.907Z,20.6
2017-04-17T11:30:57.725Z,20.5
2017-04-17T11:31:59.554Z,20.3
2017-04-17T11:33:01.373Z,20.2
2017-04-17T11:34:03.190Z,20
2017-04-17T11:36:09.423Z,19.9
2017-04-17T11:37:11.299Z,19.9
2017-04-17T11:38:13.122Z,19.8
2017-04-17T11:39:14.948Z,19.7
2017-04-17T11:40:16.760Z,19.7
2017-04-17T11:41:18.643Z,19.7
2017-04-17T11:42:20.544Z,19.8
2017-04-17T11:43:22.355Z,19.9
2017-04-17T11:44:24.179Z,20.1
2017-04-17T11:46:03.467Z,20.2
2017-04-17T11:55:09.557Z,21.4
2017-04-17T11:56:14.867Z,21.4
2017-04-17T11:57:24.519Z,21.4
2017-04-17T11:58:30.137Z,21.2
2017-04-17T11:59:39.272Z,21.1
2017-04-17T12:00:51.277Z,21
2017-04-17T12:02:08.777Z,20.9
2017-04-17T12:03:21.259Z,20.9
2017-04-17T12:04:31.320Z,20.9
2017-04-17T12:05:48.024Z,21.1
2017-04-17T12:06:57.334Z,21.3
2017-04-17T12:08:13.034Z,21.5
2017-04-17T12:09:27.416Z,21.7
2017-04-17T12:10:37.396Z,21.7
2017-04-17T12:11:47.650Z,21.6
2017-04-17T12:12:59.581Z,21.5
2017-04-17T12:14:11.463Z,21.4
2017-04-17T12:15:31.059Z,21.2
2017-04-17T12:16:48.093Z,21
2017-04-17T12:18:04.480Z,20.8
2017-04-17T12:19:24.643Z,20.6
2017-04-17T12:20:40.889Z,20.5
2017-04-17T12:21:57.825Z,20.5
2017-04-17T12:23:19.045Z,20.5
2017-04-17T12:24:36.815Z,20.4
2017-04-17T12:25:51.140Z,20.5
2017-04-17T12:27:00.221Z,20.6
2017-04-17T12:28:15.999Z,20.7
2017-04-17T12:29:28.718Z,20.8
2017-04-17T12:30:40.019Z,21
2017-04-17T12:31:50.379Z,21.2
2017-04-17T12:32:59.842Z,21.4
2017-04-17T12:34:13.085Z,21.5
2017-04-17T12:35:27.070Z,21.5
2017-04-17T12:36:37.320Z,21.5
2017-04-17T12:37:47.848Z,21.5
2017-04-17T12:38:56.302Z,21.4
2017-04-17T12:40:07.147Z,21.3
2017-04-17T12:41:18.065Z,21.2
2017-04-17T12:42:28.514Z,21
2017-04-17T12:43:41.423Z,20.9
2017-04-17T12:44:53.088Z,20.7
2017-04-17T12:46:12.056Z,20.5
2017-04-17T12:47:22.846Z,20.3
2017-04-17T12:48:29.610Z,20.1
2017-04-17T12:49:37.089Z,20
2017-04-17T12:50:48.816Z,19.8
2017-04-17T12:52:01.735Z,19.8
2017-04-17T12:53:09.708Z,19.8
2017-04-17T12:54:17.932Z,19.9
2017-04-17T12:55:28.427Z,20.1
2017-04-17T12:56:37.803Z,20.3
2017-04-17T12:57:47.249Z,20.6
2017-04-17T12:58:56.366Z,20.8
2017-04-17T13:00:06.066Z,21
2017-04-17T13:01:14.567Z,21
2017-04-17T13:02:22.716Z,21.1
2017-04-17T13:03:28.897Z,21.1
2017-04-17T13:04:35.027Z,21
2017-04-17T13:05:46.405Z,20.9
2017-04-17T13:06:57.687Z,20.8
2017-04-17T13:08:08.119Z,20.7
2017-04-17T13:09:17.001Z,20.6
2017-04-17T13:10:26.503Z,20.4
2017-04-17T13:11:37.806Z,20.2
2017-04-17T13:12:46.736Z,20
2017-04-17T13:13:52.946Z,19.8
2017-04-17T13:15:05.697Z,19.7
2017-04-17T13:16:15.555Z,19.5
2017-04-17T13:17:23.406Z,19.4
2017-04-17T13:18:31.119Z,19.3
2017-04-17T13:19:36.984Z,19.1
2017-04-17T13:20:50.480Z,19.1
2017-04-17T13:22:00.774Z,19
2017-04-17T13:23:12.612Z,19
2017-04-17T13:24:22.727Z,19.1
2017-04-17T13:25:31.907Z,19.3
2017-04-17T13:26:40.362Z,19.5
2017-04-17T13:27:49.093Z,19.7
2017-04-17T13:28:58.799Z,19.9
2017-04-17T13:30:08.299Z,20.2
2017-04-17T13:31:12.815Z,20.4
2017-04-17T13:32:15.354Z,20.6
2017-04-17T13:33:18.331Z,20.8
2017-04-17T13:34:21.276Z,21
2017-04-17T13:35:23.613Z,21.2
2017-04-17T13:36:26.005Z,21.4
2017-04-17T13:37:28.365Z,21.6
2017-04-17T13:38:31.032Z,21.8
2017-04-17T13:39:34.152Z,22
2017-04-17T13:40:37.071Z,22.1
2017-04-17T13:41:40.267Z,22.1
2017-04-17T13:42:42.677Z,22
2017-04-17T13:43:44.614Z,21.9
2017-04-17T13:44:47.932Z,21.7
2017-04-17T13:45:50.501Z,21.5
2017-04-17T13:46:58.820Z,21.3
2017-04-17T13:48:05.985Z,21
2017-04-17T13:49:14.610Z,20.8
2017-04-17T13:50:24.893Z,20.7
2017-04-17T13:51:34.382Z,20.6
2017-04-17T13:52:43.199Z,20.5
2017-04-17T13:53:52.219Z,20.4
2017-04-17T13:54:58.168Z,20.3
2017-04-17T13:56:06.645Z,20.1
2017-04-17T13:57:20.981Z,19.9
2017-04-17T13:58:30.187Z,19.7
2017-04-17T13:59:40.357Z,19.5
2017-04-17T14:00:49.614Z,19.3
2017-04-17T14:02:01.845Z,19.1
2017-04-17T14:03:12.474Z,19
2017-04-17T14:04:21.192Z,18.8
2017-04-17T14:05:31.019Z,18.6
2017-04-17T14:06:42.532Z,18.4
2017-04-17T14:07:51.378Z,18.2
2017-04-17T14:08:54.993Z,18.1
2017-04-17T14:09:58.371Z,18
2017-04-17T14:11:02.541Z,17.9
2017-04-17T14:12:06.593Z,17.8
2017-04-17T14:13:09.380Z,17.7
2017-04-17T14:14:14.834Z,17.6
2017-04-17T14:15:18.022Z,17.5
2017-04-17T14:16:21.497Z,17.3
2017-04-17T14:17:27.736Z,17.2
2017-04-17T14:18:31.983Z,17
2017-04-17T14:19:33.996Z,16.9
2017-04-17T14:20:37.758Z,16.7
2017-04-17T14:21:40.006Z,16.6
2017-04-17T14:22:44.126Z,16.5
2017-04-17T14:23:50.139Z,16.4
2017-04-17T14:24:58.785Z,16.3
2017-04-17T14:26:06.843Z,16.2
2017-04-17T14:27:14.831Z,16.1
2017-04-17T14:28:20.987Z,16.1
2017-04-17T14:29:23.970Z,16.1
2017-04-17T14:30:29.583Z,16
2017-04-17T14:31:32.100Z,16
2017-04-17T14:32:37.867Z,15.9
2017-04-17T14:33:44.237Z,15.9
2017-04-17T14:34:55.771Z,15.8
2017-04-17T14:36:00.671Z,15.7
2017-04-17T14:37:06.351Z,15.7
2017-04-17T14:38:11.713Z,15.6
2017-04-17T14:39:18.699Z,15.5
2017-04-17T14:40:27.412Z,15.4
2017-04-17T14:41:35.947Z,15.3